Heltonville, Indiana
Current Conditions -  °F | °C
As of 12:53 PM on Thursday 27 Nov 2014 (Local Time) from KBMG Reporting Station
Overcast Overcast  
Wind Chill: 21°   Ceiling: 2300
Heat Index: 30°   Visibility: 7mi
Dew Point: 21°   Wind: 10mph
Humidity: 69%   Direction: 280°W
Pressure: 30.35"   Gusts: NA
Location:  38.93°N, 86.38°W
Report Text: KBMG 271753Z 28009KT 7SM BKN023 OVC060 M01/M06 A3035 RMK AO2 SLP285 T10111061 11006 21039 50005
Loading
Personal Weather Stations






























Interactive Weather Map New forecast layout! Learn more

10-Day Weather Forecast

Advertisements
Track Severe Weather on mobile